sensor_id;sensor_type;location;lat;lon;timestamp;pressure;altitude;pressure_sealevel;temperature
74374;BMP180;62809;51.090;-115.358;2022-09-03T00:01:31;87090.00;;;25.70
74374;BMP180;62809;51.090;-115.358;2022-09-03T00:04:13;87088.00;;;25.70
74374;BMP180;62809;51.090;-115.358;2022-09-03T00:06:54;87089.20;;;25.80
74374;BMP180;62809;51.090;-115.358;2022-09-03T00:09:35;87088.20;;;25.80
74374;BMP180;62809;51.090;-115.358;2022-09-03T00:12:21;87085.20;;;25.80
74374;BMP180;62809;51.090;-115.358;2022-09-03T00:15:03;87084.20;;;25.80
74374;BMP180;62809;51.090;-115.358;2022-09-03T00:17:51;87083.00;;;25.90
74374;BMP180;62809;51.090;-115.358;2022-09-03T00:20:31;87084.00;;;25.90
74374;BMP180;62809;51.090;-115.358;2022-09-03T00:23:13;87083.60;;;25.90
74374;BMP180;62809;51.090;-115.358;2022-09-03T00:28:45;87083.80;;;25.96
74374;BMP180;62809;51.090;-115.358;2022-09-03T00:34:18;87086.00;;;26.00
74374;BMP180;62809;51.090;-115.358;2022-09-03T00:36:47;87083.20;;;26.00
74374;BMP180;62809;51.090;-115.358;2022-09-03T00:39:19;87081.00;;;26.10
74374;BMP180;62809;51.090;-115.358;2022-09-03T00:45:17;87082.20;;;26.10
74374;BMP180;62809;51.090;-115.358;2022-09-03T00:51:22;87085.00;;;26.20
74374;BMP180;62809;51.090;-115.358;2022-09-03T00:54:24;87086.60;;;26.20
74374;BMP180;62809;51.090;-115.358;2022-09-03T00:59:44;87080.00;;;26.20
74374;BMP180;62809;51.090;-115.358;2022-09-03T01:07:52;87083.00;;;26.30
74374;BMP180;62809;51.090;-115.358;2022-09-03T01:30:17;87081.00;;;26.40
74374;BMP180;62809;51.090;-115.358;2022-09-03T01:33:04;87084.40;;;26.40
74374;BMP180;62809;51.090;-115.358;2022-09-03T01:39:02;87093.00;;;26.40
74374;BMP180;62809;51.090;-115.358;2022-09-03T01:48:13;87094.00;;;26.40
74374;BMP180;62809;51.090;-115.358;2022-09-03T01:50:53;87092.00;;;26.40
74374;BMP180;62809;51.090;-115.358;2022-09-03T01:56:53;87090.60;;;26.46
74374;BMP180;62809;51.090;-115.358;2022-09-03T02:02:23;87100.60;;;26.50
74374;BMP180;62809;51.090;-115.358;2022-09-03T02:07:45;87105.40;;;26.50
74374;BMP180;62809;51.090;-115.358;2022-09-03T02:10:21;87105.80;;;26.52
74374;BMP180;62809;51.090;-115.358;2022-09-03T02:12:59;87102.40;;;26.56
74374;BMP180;62809;51.090;-115.358;2022-09-03T02:15:28;87107.40;;;26.58
74374;BMP180;62809;51.090;-115.358;2022-09-03T02:18:03;87115.60;;;26.58
74374;BMP180;62809;51.090;-115.358;2022-09-03T02:20:33;87121.80;;;26.60
74374;BMP180;62809;51.090;-115.358;2022-09-03T02:23:00;87125.20;;;26.60
74374;BMP180;62809;51.090;-115.358;2022-09-03T02:25:37;87124.00;;;26.60
74374;BMP180;62809;51.090;-115.358;2022-09-03T02:28:08;87126.20;;;26.58
74374;BMP180;62809;51.090;-115.358;2022-09-03T02:30:36;87131.40;;;26.54
74374;BMP180;62809;51.090;-115.358;2022-09-03T02:33:03;87136.00;;;26.56
74374;BMP180;62809;51.090;-115.358;2022-09-03T02:35:31;87139.60;;;26.56
74374;BMP180;62809;51.090;-115.358;2022-09-03T02:38:15;87141.20;;;26.52
74374;BMP180;62809;51.090;-115.358;2022-09-03T02:40:43;87142.00;;;26.52
74374;BMP180;62809;51.090;-115.358;2022-09-03T02:43:25;87142.40;;;26.50
74374;BMP180;62809;51.090;-115.358;2022-09-03T02:46:01;87144.20;;;26.50
74374;BMP180;62809;51.090;-115.358;2022-09-03T02:48:32;87150.20;;;26.50
74374;BMP180;62809;51.090;-115.358;2022-09-03T02:51:01;87154.00;;;26.50
74374;BMP180;62809;51.090;-115.358;2022-09-03T02:53:28;87153.60;;;26.50
74374;BMP180;62809;51.090;-115.358;2022-09-03T02:56:01;87155.40;;;26.50
74374;BMP180;62809;51.090;-115.358;2022-09-03T02:58:29;87156.60;;;26.50
74374;BMP180;62809;51.090;-115.358;2022-09-03T03:00:59;87157.00;;;26.50
74374;BMP180;62809;51.090;-115.358;2022-09-03T03:03:26;87158.40;;;26.50
74374;BMP180;62809;51.090;-115.358;2022-09-03T03:05:57;87161.60;;;26.50
74374;BMP180;62809;51.090;-115.358;2022-09-03T03:08:30;87164.40;;;26.50
74374;BMP180;62809;51.090;-115.358;2022-09-03T03:11:00;87168.40;;;26.50
74374;BMP180;62809;51.090;-115.358;2022-09-03T03:13:29;87173.60;;;26.50
74374;BMP180;62809;51.090;-115.358;2022-09-03T03:16:05;87176.00;;;26.50
74374;BMP180;62809;51.090;-115.358;2022-09-03T03:18:32;87177.20;;;26.50
74374;BMP180;62809;51.090;-115.358;2022-09-03T03:21:09;87177.80;;;26.50
74374;BMP180;62809;51.090;-115.358;2022-09-03T03:23:38;87177.60;;;26.50
74374;BMP180;62809;51.090;-115.358;2022-09-03T03:26:11;87182.60;;;26.50
74374;BMP180;62809;51.090;-115.358;2022-09-03T03:28:39;87185.60;;;26.50
74374;BMP180;62809;51.090;-115.358;2022-09-03T03:31:11;87192.00;;;26.50
74374;BMP180;62809;51.090;-115.358;2022-09-03T03:33:40;87192.60;;;26.50
74374;BMP180;62809;51.090;-115.358;2022-09-03T03:36:10;87193.20;;;26.50
74374;BMP180;62809;51.090;-115.358;2022-09-03T03:38:37;87193.80;;;26.50
74374;BMP180;62809;51.090;-115.358;2022-09-03T03:41:20;87198.40;;;26.50
74374;BMP180;62809;51.090;-115.358;2022-09-03T03:43:57;87199.60;;;26.48
74374;BMP180;62809;51.090;-115.358;2022-09-03T03:46:30;87205.80;;;26.48
74374;BMP180;62809;51.090;-115.358;2022-09-03T03:48:57;87198.40;;;26.48
74374;BMP180;62809;51.090;-115.358;2022-09-03T03:51:25;87203.00;;;26.50
74374;BMP180;62809;51.090;-115.358;2022-09-03T03:53:58;87217.00;;;26.50
74374;BMP180;62809;51.090;-115.358;2022-09-03T03:56:27;87210.20;;;26.50
74374;BMP180;62809;51.090;-115.358;2022-09-03T03:58:58;87208.40;;;26.50
74374;BMP180;62809;51.090;-115.358;2022-09-03T04:01:28;87213.00;;;26.50
74374;BMP180;62809;51.090;-115.358;2022-09-03T04:03:58;87216.80;;;26.50
74374;BMP180;62809;51.090;-115.358;2022-09-03T04:06:27;87218.40;;;26.50
74374;BMP180;62809;51.090;-115.358;2022-09-03T04:08:54;87213.80;;;26.50
74374;BMP180;62809;51.090;-115.358;2022-09-03T04:11:24;87216.20;;;26.50
74374;BMP180;62809;51.090;-115.358;2022-09-03T04:13:52;87221.00;;;26.50
74374;BMP180;62809;51.090;-115.358;2022-09-03T04:16:24;87216.80;;;26.48
74374;BMP180;62809;51.090;-115.358;2022-09-03T04:18:55;87213.40;;;26.50
74374;BMP180;62809;51.090;-115.358;2022-09-03T04:21:29;87221.80;;;26.48
74374;BMP180;62809;51.090;-115.358;2022-09-03T04:23:58;87224.80;;;26.42
74374;BMP180;62809;51.090;-115.358;2022-09-03T04:26:28;87221.40;;;26.40
74374;BMP180;62809;51.090;-115.358;2022-09-03T04:29:05;87221.00;;;26.40
74374;BMP180;62809;51.090;-115.358;2022-09-03T04:31:34;87224.00;;;26.40
74374;BMP180;62809;51.090;-115.358;2022-09-03T04:34:03;87229.20;;;26.40
74374;BMP180;62809;51.090;-115.358;2022-09-03T04:36:35;87226.00;;;26.40
74374;BMP180;62809;51.090;-115.358;2022-09-03T04:39:02;87229.60;;;26.40
74374;BMP180;62809;51.090;-115.358;2022-09-03T04:41:31;87228.40;;;26.40
74374;BMP180;62809;51.090;-115.358;2022-09-03T04:43:59;87227.60;;;26.40
74374;BMP180;62809;51.090;-115.358;2022-09-03T04:46:28;87228.80;;;26.40
74374;BMP180;62809;51.090;-115.358;2022-09-03T04:48:58;87237.60;;;26.40
74374;BMP180;62809;51.090;-115.358;2022-09-03T04:51:28;87232.00;;;26.40
74374;BMP180;62809;51.090;-115.358;2022-09-03T04:54:00;87229.20;;;26.34
74374;BMP180;62809;51.090;-115.358;2022-09-03T04:56:34;87237.40;;;26.30
74374;BMP180;62809;51.090;-115.358;2022-09-03T04:59:07;87235.60;;;26.30
74374;BMP180;62809;51.090;-115.358;2022-09-03T05:01:37;87239.00;;;26.30
74374;BMP180;62809;51.090;-115.358;2022-09-03T05:04:06;87235.40;;;26.30
74374;BMP180;62809;51.090;-115.358;2022-09-03T05:06:36;87235.00;;;26.30
74374;BMP180;62809;51.090;-115.358;2022-09-03T05:09:04;87236.20;;;26.30
74374;BMP180;62809;51.090;-115.358;2022-09-03T05:11:34;87238.20;;;26.30
74374;BMP180;62809;51.090;-115.358;2022-09-03T05:14:03;87240.80;;;26.30
74374;BMP180;62809;51.090;-115.358;2022-09-03T05:16:37;87245.40;;;26.30
74374;BMP180;62809;51.090;-115.358;2022-09-03T05:19:06;87238.60;;;26.30
74374;BMP180;62809;51.090;-115.358;2022-09-03T05:21:38;87247.80;;;26.30
74374;BMP180;62809;51.090;-115.358;2022-09-03T05:24:05;87241.00;;;26.30
74374;BMP180;62809;51.090;-115.358;2022-09-03T05:26:38;87248.00;;;26.30
74374;BMP180;62809;51.090;-115.358;2022-09-03T05:29:07;87249.40;;;26.30
74374;BMP180;62809;51.090;-115.358;2022-09-03T05:31:39;87255.00;;;26.30
74374;BMP180;62809;51.090;-115.358;2022-09-03T05:34:09;87257.40;;;26.28
74374;BMP180;62809;51.090;-115.358;2022-09-03T05:36:38;87262.60;;;26.20
74374;BMP180;62809;51.090;-115.358;2022-09-03T05:39:06;87257.00;;;26.20
74374;BMP180;62809;51.090;-115.358;2022-09-03T05:41:34;87255.00;;;26.20
74374;BMP180;62809;51.090;-115.358;2022-09-03T05:44:06;87266.40;;;26.20
74374;BMP180;62809;51.090;-115.358;2022-09-03T05:46:54;87268.80;;;26.20
74374;BMP180;62809;51.090;-115.358;2022-09-03T05:49:21;87267.80;;;26.20
74374;BMP180;62809;51.090;-115.358;2022-09-03T05:51:50;87262.20;;;26.20
74374;BMP180;62809;51.090;-115.358;2022-09-03T05:54:17;87263.40;;;26.20
74374;BMP180;62809;51.090;-115.358;2022-09-03T05:56:46;87268.20;;;26.20
74374;BMP180;62809;51.090;-115.358;2022-09-03T05:59:13;87268.40;;;26.20
74374;BMP180;62809;51.090;-115.358;2022-09-03T06:01:45;87270.60;;;26.16
74374;BMP180;62809;51.090;-115.358;2022-09-03T06:04:16;87272.60;;;26.10
74374;BMP180;62809;51.090;-115.358;2022-09-03T06:06:47;87278.00;;;26.10
74374;BMP180;62809;51.090;-115.358;2022-09-03T06:09:18;87280.00;;;26.10
74374;BMP180;62809;51.090;-115.358;2022-09-03T06:11:49;87279.60;;;26.10
74374;BMP180;62809;51.090;-115.358;2022-09-03T06:14:19;87281.60;;;26.10
74374;BMP180;62809;51.090;-115.358;2022-09-03T06:16:50;87289.00;;;26.10
74374;BMP180;62809;51.090;-115.358;2022-09-03T06:19:21;87295.80;;;26.10
74374;BMP180;62809;51.090;-115.358;2022-09-03T06:21:52;87290.20;;;26.10
74374;BMP180;62809;51.090;-115.358;2022-09-03T06:24:21;87293.40;;;26.10
74374;BMP180;62809;51.090;-115.358;2022-09-03T06:26:49;87301.40;;;26.06
74374;BMP180;62809;51.090;-115.358;2022-09-03T06:29:17;87307.00;;;26.06
74374;BMP180;62809;51.090;-115.358;2022-09-03T06:31:46;87307.40;;;26.00
74374;BMP180;62809;51.090;-115.358;2022-09-03T06:34:15;87312.00;;;26.00
74374;BMP180;62809;51.090;-115.358;2022-09-03T06:36:48;87312.40;;;26.00
74374;BMP180;62809;51.090;-115.358;2022-09-03T06:39:16;87314.20;;;26.00
74374;BMP180;62809;51.090;-115.358;2022-09-03T06:41:45;87312.00;;;26.00
74374;BMP180;62809;51.090;-115.358;2022-09-03T06:44:17;87314.40;;;26.00
74374;BMP180;62809;51.090;-115.358;2022-09-03T06:46:45;87318.20;;;26.00
74374;BMP180;62809;51.090;-115.358;2022-09-03T06:49:14;87316.80;;;26.00
74374;BMP180;62809;51.090;-115.358;2022-09-03T06:51:42;87316.60;;;26.00
74374;BMP180;62809;51.090;-115.358;2022-09-03T06:54:12;87319.00;;;26.00
74374;BMP180;62809;51.090;-115.358;2022-09-03T06:56:41;87320.40;;;26.00
74374;BMP180;62809;51.090;-115.358;2022-09-03T06:59:14;87319.00;;;26.00
74374;BMP180;62809;51.090;-115.358;2022-09-03T07:01:45;87320.40;;;25.90
74374;BMP180;62809;51.090;-115.358;2022-09-03T07:04:14;87322.00;;;25.90
74374;BMP180;62809;51.090;-115.358;2022-09-03T07:06:46;87315.80;;;25.90
74374;BMP180;62809;51.090;-115.358;2022-09-03T07:09:13;87315.20;;;25.90
74374;BMP180;62809;51.090;-115.358;2022-09-03T07:11:45;87309.20;;;25.90
74374;BMP180;62809;51.090;-115.358;2022-09-03T07:14:13;87318.60;;;25.90
74374;BMP180;62809;51.090;-115.358;2022-09-03T07:16:42;87314.40;;;25.90
74374;BMP180;62809;51.090;-115.358;2022-09-03T07:19:11;87310.80;;;25.90
74374;BMP180;62809;51.090;-115.358;2022-09-03T07:21:42;87311.00;;;25.88
74374;BMP180;62809;51.090;-115.358;2022-09-03T07:24:11;87312.00;;;25.80
74374;BMP180;62809;51.090;-115.358;2022-09-03T07:26:42;87311.20;;;25.80
74374;BMP180;62809;51.090;-115.358;2022-09-03T07:29:14;87311.80;;;25.80
74374;BMP180;62809;51.090;-115.358;2022-09-03T07:31:45;87307.00;;;25.80
74374;BMP180;62809;51.090;-115.358;2022-09-03T07:34:13;87308.00;;;25.80
74374;BMP180;62809;51.090;-115.358;2022-09-03T07:36:45;87310.20;;;25.80
74374;BMP180;62809;51.090;-115.358;2022-09-03T07:39:14;87311.00;;;25.80
74374;BMP180;62809;51.090;-115.358;2022-09-03T07:41:43;87305.00;;;25.70
74374;BMP180;62809;51.090;-115.358;2022-09-03T07:44:13;87304.00;;;25.70
74374;BMP180;62809;51.090;-115.358;2022-09-03T07:46:43;87306.00;;;25.70
74374;BMP180;62809;51.090;-115.358;2022-09-03T07:49:11;87302.80;;;25.70
74374;BMP180;62809;51.090;-115.358;2022-09-03T07:51:41;87298.60;;;25.70
74374;BMP180;62809;51.090;-115.358;2022-09-03T07:54:10;87298.40;;;25.70
74374;BMP180;62809;51.090;-115.358;2022-09-03T07:56:40;87297.20;;;25.70
74374;BMP180;62809;51.090;-115.358;2022-09-03T07:59:09;87298.00;;;25.70
74374;BMP180;62809;51.090;-115.358;2022-09-03T08:01:39;87295.80;;;25.64
74374;BMP180;62809;51.090;-115.358;2022-09-03T08:04:07;87289.40;;;25.62
74374;BMP180;62809;51.090;-115.358;2022-09-03T08:06:39;87289.60;;;25.60
74374;BMP180;62809;51.090;-115.358;2022-09-03T08:09:10;87293.20;;;25.60
74374;BMP180;62809;51.090;-115.358;2022-09-03T08:11:41;87289.60;;;25.60
74374;BMP180;62809;51.090;-115.358;2022-09-03T08:14:14;87290.20;;;25.60
74374;BMP180;62809;51.090;-115.358;2022-09-03T08:16:44;87291.80;;;25.60
74374;BMP180;62809;51.090;-115.358;2022-09-03T08:19:19;87288.80;;;25.60
74374;BMP180;62809;51.090;-115.358;2022-09-03T08:21:46;87283.20;;;25.60
74374;BMP180;62809;51.090;-115.358;2022-09-03T08:24:16;87287.00;;;25.54
74374;BMP180;62809;51.090;-115.358;2022-09-03T08:26:46;87290.00;;;25.50
74374;BMP180;62809;51.090;-115.358;2022-09-03T08:29:14;87287.40;;;25.50
74374;BMP180;62809;51.090;-115.358;2022-09-03T08:31:41;87288.00;;;25.50
74374;BMP180;62809;51.090;-115.358;2022-09-03T08:34:09;87290.20;;;25.50
74374;BMP180;62809;51.090;-115.358;2022-09-03T08:36:39;87286.80;;;25.50
74374;BMP180;62809;51.090;-115.358;2022-09-03T08:39:14;87292.40;;;25.50
74374;BMP180;62809;51.090;-115.358;2022-09-03T08:45:03;87293.20;;;25.44
74374;BMP180;62809;51.090;-115.358;2022-09-03T08:47:47;87289.40;;;25.40
74374;BMP180;62809;51.090;-115.358;2022-09-03T08:50:23;87289.60;;;25.40
74374;BMP180;62809;51.090;-115.358;2022-09-03T08:53:20;87284.20;;;25.40
74374;BMP180;62809;51.090;-115.358;2022-09-03T08:55:55;87273.80;;;25.40
74374;BMP180;62809;51.090;-115.358;2022-09-03T08:58:31;87281.00;;;25.40
74374;BMP180;62809;51.090;-115.358;2022-09-03T09:04:04;87277.60;;;25.40
74374;BMP180;62809;51.090;-115.358;2022-09-03T09:12:12;87279.00;;;25.30
74374;BMP180;62809;51.090;-115.358;2022-09-03T09:17:44;87276.20;;;25.30
74374;BMP180;62809;51.090;-115.358;2022-09-03T09:23:10;87280.60;;;25.30
74374;BMP180;62809;51.090;-115.358;2022-09-03T09:25:48;87284.20;;;25.30
74374;BMP180;62809;51.090;-115.358;2022-09-03T09:28:23;87285.60;;;25.26
74374;BMP180;62809;51.090;-115.358;2022-09-03T09:30:54;87286.20;;;25.20
74374;BMP180;62809;51.090;-115.358;2022-09-03T09:33:24;87290.00;;;25.20
74374;BMP180;62809;51.090;-115.358;2022-09-03T09:35:54;87291.80;;;25.20
74374;BMP180;62809;51.090;-115.358;2022-09-03T09:38:35;87290.60;;;25.20
74374;BMP180;62809;51.090;-115.358;2022-09-03T09:41:12;87290.40;;;25.20
74374;BMP180;62809;51.090;-115.358;2022-09-03T09:43:41;87290.60;;;25.20
74374;BMP180;62809;51.090;-115.358;2022-09-03T09:46:22;87291.60;;;25.20
74374;BMP180;62809;51.090;-115.358;2022-09-03T09:48:54;87291.20;;;25.20
74374;BMP180;62809;51.090;-115.358;2022-09-03T09:51:25;87290.00;;;25.16
74374;BMP180;62809;51.090;-115.358;2022-09-03T09:56:42;87290.00;;;25.10
74374;BMP180;62809;51.090;-115.358;2022-09-03T09:59:14;87291.00;;;25.10
74374;BMP180;62809;51.090;-115.358;2022-09-03T10:01:43;87293.20;;;25.10
74374;BMP180;62809;51.090;-115.358;2022-09-03T10:04:28;87294.80;;;25.10
74374;BMP180;62809;51.090;-115.358;2022-09-03T10:07:06;87298.60;;;25.10
74374;BMP180;62809;51.090;-115.358;2022-09-03T10:09:56;87300.40;;;25.10
74374;BMP180;62809;51.090;-115.358;2022-09-03T10:12:39;87299.60;;;25.06
74374;BMP180;62809;51.090;-115.358;2022-09-03T10:23:23;87301.00;;;25.00
74374;BMP180;62809;51.090;-115.358;2022-09-03T10:26:02;87302.00;;;25.00
74374;BMP180;62809;51.090;-115.358;2022-09-03T10:28:37;87301.40;;;25.00
74374;BMP180;62809;51.090;-115.358;2022-09-03T10:31:31;87301.60;;;25.00
74374;BMP180;62809;51.090;-115.358;2022-09-03T10:34:13;87303.60;;;25.00
74374;BMP180;62809;51.090;-115.358;2022-09-03T10:45:37;87303.60;;;24.90
74374;BMP180;62809;51.090;-115.358;2022-09-03T10:50:56;87305.20;;;24.90
74374;BMP180;62809;51.090;-115.358;2022-09-03T10:56:31;87301.80;;;24.90
74374;BMP180;62809;51.090;-115.358;2022-09-03T10:59:53;87302.40;;;24.86
74374;BMP180;62809;51.090;-115.358;2022-09-03T11:05:27;87306.40;;;24.80
74374;BMP180;62809;51.090;-115.358;2022-09-03T11:10:59;87296.80;;;24.80
74374;BMP180;62809;51.090;-115.358;2022-09-03T11:16:27;87299.20;;;24.80
74374;BMP180;62809;51.090;-115.358;2022-09-03T11:19:13;87304.40;;;24.80
74374;BMP180;62809;51.090;-115.358;2022-09-03T11:21:45;87304.40;;;24.78
74374;BMP180;62809;51.090;-115.358;2022-09-03T11:24:22;87298.60;;;24.70
74374;BMP180;62809;51.090;-115.358;2022-09-03T11:30:23;87300.00;;;24.70
74374;BMP180;62809;51.090;-115.358;2022-09-03T11:32:53;87300.60;;;24.70
74374;BMP180;62809;51.090;-115.358;2022-09-03T11:40:38;87297.40;;;24.70
74374;BMP180;62809;51.090;-115.358;2022-09-03T11:46:12;87304.20;;;24.66
74374;BMP180;62809;51.090;-115.358;2022-09-03T11:48:44;87306.00;;;24.60
74374;BMP180;62809;51.090;-115.358;2022-09-03T11:56:35;87306.80;;;24.60
74374;BMP180;62809;51.090;-115.358;2022-09-03T12:02:07;87309.60;;;24.60
74374;BMP180;62809;51.090;-115.358;2022-09-03T12:05:06;87311.00;;;24.60
74374;BMP180;62809;51.090;-115.358;2022-09-03T12:13:58;87316.80;;;24.50
74374;BMP180;62809;51.090;-115.358;2022-09-03T12:22:01;87316.80;;;24.50
74374;BMP180;62809;51.090;-115.358;2022-09-03T12:24:33;87315.80;;;24.50
74374;BMP180;62809;51.090;-115.358;2022-09-03T12:27:03;87322.60;;;24.48
74374;BMP180;62809;51.090;-115.358;2022-09-03T12:29:33;87319.00;;;24.40
74374;BMP180;62809;51.090;-115.358;2022-09-03T12:32:12;87319.60;;;24.40
74374;BMP180;62809;51.090;-115.358;2022-09-03T12:34:42;87318.00;;;24.40
74374;BMP180;62809;51.090;-115.358;2022-09-03T12:37:24;87323.00;;;24.40
74374;BMP180;62809;51.090;-115.358;2022-09-03T12:39:55;87319.60;;;24.40
74374;BMP180;62809;51.090;-115.358;2022-09-03T12:42:27;87321.60;;;24.40
74374;BMP180;62809;51.090;-115.358;2022-09-03T12:44:55;87325.60;;;24.40
74374;BMP180;62809;51.090;-115.358;2022-09-03T12:47:30;87331.20;;;24.40
74374;BMP180;62809;51.090;-115.358;2022-09-03T12:50:15;87333.80;;;24.40
74374;BMP180;62809;51.090;-115.358;2022-09-03T12:52:54;87335.00;;;24.40
74374;BMP180;62809;51.090;-115.358;2022-09-03T12:58:31;87342.00;;;24.30
74374;BMP180;62809;51.090;-115.358;2022-09-03T13:01:12;87342.80;;;24.30
74374;BMP180;62809;51.090;-115.358;2022-09-03T13:06:26;87349.20;;;24.30
74374;BMP180;62809;51.090;-115.358;2022-09-03T13:09:03;87353.20;;;24.30
74374;BMP180;62809;51.090;-115.358;2022-09-03T13:11:35;87355.20;;;24.30
74374;BMP180;62809;51.090;-115.358;2022-09-03T13:14:09;87358.80;;;24.26
74374;BMP180;62809;51.090;-115.358;2022-09-03T13:22:49;87366.80;;;24.20
74374;BMP180;62809;51.090;-115.358;2022-09-03T13:25:37;87371.00;;;24.20
74374;BMP180;62809;51.090;-115.358;2022-09-03T13:28:47;87370.80;;;24.20
74374;BMP180;62809;51.090;-115.358;2022-09-03T13:31:46;87371.00;;;24.20
74374;BMP180;62809;51.090;-115.358;2022-09-03T13:34:41;87372.00;;;24.18
74374;BMP180;62809;51.090;-115.358;2022-09-03T13:37:37;87373.00;;;24.10
74374;BMP180;62809;51.090;-115.358;2022-09-03T13:43:04;87373.20;;;24.10
74374;BMP180;62809;51.090;-115.358;2022-09-03T13:45:55;87369.20;;;24.10
74374;BMP180;62809;51.090;-115.358;2022-09-03T13:48:39;87374.60;;;24.10
74374;BMP180;62809;51.090;-115.358;2022-09-03T13:54:22;87374.60;;;24.10
74374;BMP180;62809;51.090;-115.358;2022-09-03T13:57:18;87375.60;;;24.06
74374;BMP180;62809;51.090;-115.358;2022-09-03T14:00:03;87375.80;;;24.00
74374;BMP180;62809;51.090;-115.358;2022-09-03T14:02:49;87375.40;;;24.00
74374;BMP180;62809;51.090;-115.358;2022-09-03T14:20:21;87363.80;;;24.00
74374;BMP180;62809;51.090;-115.358;2022-09-03T14:23:27;87366.00;;;23.94
74374;BMP180;62809;51.090;-115.358;2022-09-03T14:26:06;87370.60;;;23.90
74374;BMP180;62809;51.090;-115.358;2022-09-03T14:28:49;87370.40;;;23.90
74374;BMP180;62809;51.090;-115.358;2022-09-03T14:31:46;87369.20;;;23.90
74374;BMP180;62809;51.090;-115.358;2022-09-03T14:54:29;87365.60;;;23.90
74374;BMP180;62809;51.090;-115.358;2022-09-03T15:00:20;87355.00;;;23.90
74374;BMP180;62809;51.090;-115.358;2022-09-03T15:11:54;87359.00;;;23.82
74374;BMP180;62809;51.090;-115.358;2022-09-03T15:14:41;87357.00;;;23.80
74374;BMP180;62809;51.090;-115.358;2022-09-03T15:21:05;87348.00;;;23.80
74374;BMP180;62809;51.090;-115.358;2022-09-03T15:34:54;87341.20;;;23.80
74374;BMP180;62809;51.090;-115.358;2022-09-03T15:38:09;87331.80;;;23.80
74374;BMP180;62809;51.090;-115.358;2022-09-03T15:40:51;87330.20;;;23.80
74374;BMP180;62809;51.090;-115.358;2022-09-03T15:43:31;87326.80;;;23.80
74374;BMP180;62809;51.090;-115.358;2022-09-03T15:46:05;87327.60;;;23.74
74374;BMP180;62809;51.090;-115.358;2022-09-03T15:49:05;87329.40;;;23.70
74374;BMP180;62809;51.090;-115.358;2022-09-03T15:52:02;87330.40;;;23.76
74374;BMP180;62809;51.090;-115.358;2022-09-03T15:54:55;87324.00;;;23.72
74374;BMP180;62809;51.090;-115.358;2022-09-03T16:00:21;87324.60;;;23.76
74374;BMP180;62809;51.090;-115.358;2022-09-03T16:08:21;87320.60;;;23.76
74374;BMP180;62809;51.090;-115.358;2022-09-03T16:16:58;87317.00;;;23.70
74374;BMP180;62809;51.090;-115.358;2022-09-03T16:19:42;87305.80;;;23.70
74374;BMP180;62809;51.090;-115.358;2022-09-03T16:22:27;87302.60;;;23.70
74374;BMP180;62809;51.090;-115.358;2022-09-03T16:25:09;87302.40;;;23.70
74374;BMP180;62809;51.090;-115.358;2022-09-03T16:28:08;87302.20;;;23.70
74374;BMP180;62809;51.090;-115.358;2022-09-03T16:36:26;87286.60;;;23.70
74374;BMP180;62809;51.090;-115.358;2022-09-03T16:42:31;87271.40;;;23.72
74374;BMP180;62809;51.090;-115.358;2022-09-03T16:48:22;87259.80;;;23.74
74374;BMP180;62809;51.090;-115.358;2022-09-03T16:51:04;87256.80;;;23.80
74374;BMP180;62809;51.090;-115.358;2022-09-03T16:54:20;87259.80;;;23.78
74374;BMP180;62809;51.090;-115.358;2022-09-03T16:57:10;87251.40;;;23.76
74374;BMP180;62809;51.090;-115.358;2022-09-03T17:00:10;87235.40;;;23.78
74374;BMP180;62809;51.090;-115.358;2022-09-03T17:03:18;87226.00;;;23.78
74374;BMP180;62809;51.090;-115.358;2022-09-03T17:17:22;87184.60;;;23.80
74374;BMP180;62809;51.090;-115.358;2022-09-03T17:25:39;87156.20;;;23.80
74374;BMP180;62809;51.090;-115.358;2022-09-03T17:34:41;87151.00;;;23.80
74374;BMP180;62809;51.090;-115.358;2022-09-03T17:45:53;87160.00;;;23.90
74374;BMP180;62809;51.090;-115.358;2022-09-03T17:48:46;87154.20;;;23.90
74374;BMP180;62809;51.090;-115.358;2022-09-03T17:51:49;87153.20;;;23.90
74374;BMP180;62809;51.090;-115.358;2022-09-03T18:02:52;87128.20;;;24.00
74374;BMP180;62809;51.090;-115.358;2022-09-03T18:05:25;87119.80;;;24.00
74374;BMP180;62809;51.090;-115.358;2022-09-03T18:11:09;87110.40;;;24.00
74374;BMP180;62809;51.090;-115.358;2022-09-03T18:16:49;87101.60;;;24.10
74374;BMP180;62809;51.090;-115.358;2022-09-03T18:25:49;87087.00;;;24.10
74374;BMP180;62809;51.090;-115.358;2022-09-03T18:31:29;87077.20;;;24.10
74374;BMP180;62809;51.090;-115.358;2022-09-03T18:34:17;87082.40;;;24.12
74374;BMP180;62809;51.090;-115.358;2022-09-03T18:37:05;87075.80;;;24.20
74374;BMP180;62809;51.090;-115.358;2022-09-03T18:39:50;87070.00;;;24.20
74374;BMP180;62809;51.090;-115.358;2022-09-03T18:43:08;87072.40;;;24.20
74374;BMP180;62809;51.090;-115.358;2022-09-03T18:46:02;87065.00;;;24.20
74374;BMP180;62809;51.090;-115.358;2022-09-03T18:49:10;87056.20;;;24.30
74374;BMP180;62809;51.090;-115.358;2022-09-03T18:55:33;87052.00;;;24.30
74374;BMP180;62809;51.090;-115.358;2022-09-03T19:01:37;87042.40;;;24.40
74374;BMP180;62809;51.090;-115.358;2022-09-03T19:10:54;87026.80;;;24.50
74374;BMP180;62809;51.090;-115.358;2022-09-03T19:13:40;87024.80;;;24.50
74374;BMP180;62809;51.090;-115.358;2022-09-03T19:22:39;87016.80;;;24.60
74374;BMP180;62809;51.090;-115.358;2022-09-03T19:25:29;87016.00;;;24.68
74374;BMP180;62809;51.090;-115.358;2022-09-03T19:28:19;87010.40;;;24.70
74374;BMP180;62809;51.090;-115.358;2022-09-03T19:43:46;86976.00;;;24.80
74374;BMP180;62809;51.090;-115.358;2022-09-03T19:46:51;86971.80;;;24.80
74374;BMP180;62809;51.090;-115.358;2022-09-03T19:53:05;86965.20;;;24.90
74374;BMP180;62809;51.090;-115.358;2022-09-03T19:56:02;86954.00;;;24.90
74374;BMP180;62809;51.090;-115.358;2022-09-03T19:58:57;86953.60;;;24.90
74374;BMP180;62809;51.090;-115.358;2022-09-03T20:01:46;86950.80;;;25.00
74374;BMP180;62809;51.090;-115.358;2022-09-03T20:04:43;86949.40;;;25.00